sensor_id;sensor_type;location;lat;lon;timestamp;P1;durP1;ratioP1;P2;durP2;ratioP2
19364;SDS011;9818;48.382;10.850;2022-12-18T00:00:20;29.87;;;15.20;;
19364;SDS011;9818;48.382;10.850;2022-12-18T00:02:51;36.70;;;17.83;;
19364;SDS011;9818;48.382;10.850;2022-12-18T00:05:20;27.00;;;14.70;;
19364;SDS011;9818;48.382;10.850;2022-12-18T00:07:49;28.20;;;14.83;;
19364;SDS011;9818;48.382;10.850;2022-12-18T00:10:17;28.20;;;14.17;;
19364;SDS011;9818;48.382;10.850;2022-12-18T00:12:46;32.40;;;15.30;;
19364;SDS011;9818;48.382;10.850;2022-12-18T00:15:15;22.23;;;11.67;;
19364;SDS011;9818;48.382;10.850;2022-12-18T00:17:47;30.20;;;14.67;;
19364;SDS011;9818;48.382;10.850;2022-12-18T00:20:15;30.33;;;14.93;;
19364;SDS011;9818;48.382;10.850;2022-12-18T00:22:50;24.30;;;12.73;;
19364;SDS011;9818;48.382;10.850;2022-12-18T00:25:19;27.50;;;13.83;;
19364;SDS011;9818;48.382;10.850;2022-12-18T00:27:48;26.13;;;13.73;;
19364;SDS011;9818;48.382;10.850;2022-12-18T00:30:16;25.70;;;13.60;;
19364;SDS011;9818;48.382;10.850;2022-12-18T00:32:48;28.17;;;14.10;;
19364;SDS011;9818;48.382;10.850;2022-12-18T00:35:16;22.53;;;12.33;;
19364;SDS011;9818;48.382;10.850;2022-12-18T00:37:45;21.40;;;11.27;;
19364;SDS011;9818;48.382;10.850;2022-12-18T00:40:14;21.80;;;10.83;;
19364;SDS011;9818;48.382;10.850;2022-12-18T00:42:43;20.57;;;11.53;;
19364;SDS011;9818;48.382;10.850;2022-12-18T00:45:24;20.30;;;10.90;;
19364;SDS011;9818;48.382;10.850;2022-12-18T00:47:56;19.87;;;10.27;;
19364;SDS011;9818;48.382;10.850;2022-12-18T00:50:25;22.53;;;11.57;;
19364;SDS011;9818;48.382;10.850;2022-12-18T00:52:54;24.97;;;12.00;;
19364;SDS011;9818;48.382;10.850;2022-12-18T00:55:23;21.60;;;10.73;;
19364;SDS011;9818;48.382;10.850;2022-12-18T00:57:52;21.60;;;10.93;;
19364;SDS011;9818;48.382;10.850;2022-12-18T01:00:20;19.43;;;10.17;;
19364;SDS011;9818;48.382;10.850;2022-12-18T01:02:49;35.10;;;17.10;;
19364;SDS011;9818;48.382;10.850;2022-12-18T01:05:21;36.90;;;17.60;;
19364;SDS011;9818;48.382;10.850;2022-12-18T01:20:17;28.80;;;14.97;;
19364;SDS011;9818;48.382;10.850;2022-12-18T01:22:46;31.00;;;16.03;;
19364;SDS011;9818;48.382;10.850;2022-12-18T01:25:15;32.43;;;15.87;;
19364;SDS011;9818;48.382;10.850;2022-12-18T01:27:43;30.87;;;15.67;;
19364;SDS011;9818;48.382;10.850;2022-12-18T01:30:12;26.67;;;12.80;;
19364;SDS011;9818;48.382;10.850;2022-12-18T01:32:41;36.40;;;17.67;;
19364;SDS011;9818;48.382;10.850;2022-12-18T01:35:09;34.97;;;16.57;;
19364;SDS011;9818;48.382;10.850;2022-12-18T01:37:41;33.80;;;16.00;;
19364;SDS011;9818;48.382;10.850;2022-12-18T01:40:09;31.53;;;15.20;;
19364;SDS011;9818;48.382;10.850;2022-12-18T01:42:38;35.50;;;16.10;;
19364;SDS011;9818;48.382;10.850;2022-12-18T01:45:21;42.03;;;18.67;;
19364;SDS011;9818;48.382;10.850;2022-12-18T01:47:53;42.90;;;18.23;;
19364;SDS011;9818;48.382;10.850;2022-12-18T01:50:25;37.80;;;16.57;;
19364;SDS011;9818;48.382;10.850;2022-12-18T01:53:02;43.03;;;19.20;;
19364;SDS011;9818;48.382;10.850;2022-12-18T01:55:35;34.90;;;16.57;;
19364;SDS011;9818;48.382;10.850;2022-12-18T01:58:08;37.53;;;17.17;;
19364;SDS011;9818;48.382;10.850;2022-12-18T02:00:37;34.00;;;17.03;;
19364;SDS011;9818;48.382;10.850;2022-12-18T02:03:05;33.97;;;16.37;;
19364;SDS011;9818;48.382;10.850;2022-12-18T02:05:37;31.87;;;15.33;;
19364;SDS011;9818;48.382;10.850;2022-12-18T02:08:13;32.43;;;15.53;;
19364;SDS011;9818;48.382;10.850;2022-12-18T02:10:46;35.97;;;15.87;;
19364;SDS011;9818;48.382;10.850;2022-12-18T02:13:23;36.97;;;17.07;;
19364;SDS011;9818;48.382;10.850;2022-12-18T02:16:01;30.27;;;15.40;;
19364;SDS011;9818;48.382;10.850;2022-12-18T02:18:35;27.40;;;12.87;;
19364;SDS011;9818;48.382;10.850;2022-12-18T02:21:08;24.97;;;12.63;;
19364;SDS011;9818;48.382;10.850;2022-12-18T02:23:50;33.10;;;16.07;;
19364;SDS011;9818;48.382;10.850;2022-12-18T02:26:28;33.23;;;14.90;;
19364;SDS011;9818;48.382;10.850;2022-12-18T02:29:03;26.00;;;12.43;;
19364;SDS011;9818;48.382;10.850;2022-12-18T02:31:36;35.23;;;16.23;;
19364;SDS011;9818;48.382;10.850;2022-12-18T02:34:08;25.87;;;11.97;;
19364;SDS011;9818;48.382;10.850;2022-12-18T02:36:38;35.00;;;15.77;;
19364;SDS011;9818;48.382;10.850;2022-12-18T02:39:09;30.00;;;14.87;;
19364;SDS011;9818;48.382;10.850;2022-12-18T02:41:42;23.27;;;11.93;;
19364;SDS011;9818;48.382;10.850;2022-12-18T02:44:12;23.63;;;11.77;;
19364;SDS011;9818;48.382;10.850;2022-12-18T02:46:42;28.87;;;13.57;;
19364;SDS011;9818;48.382;10.850;2022-12-18T02:49:17;46.87;;;17.27;;
19364;SDS011;9818;48.382;10.850;2022-12-18T02:52:01;31.30;;;14.70;;
19364;SDS011;9818;48.382;10.850;2022-12-18T02:54:39;34.07;;;17.00;;
19364;SDS011;9818;48.382;10.850;2022-12-18T02:57:21;26.40;;;12.23;;
19364;SDS011;9818;48.382;10.850;2022-12-18T02:59:56;36.73;;;17.20;;
19364;SDS011;9818;48.382;10.850;2022-12-18T03:02:31;26.27;;;13.10;;
19364;SDS011;9818;48.382;10.850;2022-12-18T03:05:06;26.40;;;11.73;;
19364;SDS011;9818;48.382;10.850;2022-12-18T03:07:39;22.40;;;11.23;;
19364;SDS011;9818;48.382;10.850;2022-12-18T03:10:13;20.67;;;10.80;;
19364;SDS011;9818;48.382;10.850;2022-12-18T03:12:50;24.67;;;11.77;;
19364;SDS011;9818;48.382;10.850;2022-12-18T03:15:22;23.87;;;12.50;;
19364;SDS011;9818;48.382;10.850;2022-12-18T03:17:56;39.53;;;17.47;;
19364;SDS011;9818;48.382;10.850;2022-12-18T03:20:28;36.60;;;17.13;;
19364;SDS011;9818;48.382;10.850;2022-12-18T03:22:59;26.80;;;13.40;;
19364;SDS011;9818;48.382;10.850;2022-12-18T03:25:35;21.13;;;10.70;;
19364;SDS011;9818;48.382;10.850;2022-12-18T03:28:10;22.83;;;11.37;;
19364;SDS011;9818;48.382;10.850;2022-12-18T03:30:41;19.43;;;10.40;;
19364;SDS011;9818;48.382;10.850;2022-12-18T03:33:14;23.63;;;11.10;;
19364;SDS011;9818;48.382;10.850;2022-12-18T03:35:47;21.03;;;9.70;;
19364;SDS011;9818;48.382;10.850;2022-12-18T03:38:16;32.53;;;14.07;;
19364;SDS011;9818;48.382;10.850;2022-12-18T03:40:47;27.63;;;12.07;;
19364;SDS011;9818;48.382;10.850;2022-12-18T03:43:28;21.60;;;10.70;;
19364;SDS011;9818;48.382;10.850;2022-12-18T03:46:07;20.60;;;10.20;;
19364;SDS011;9818;48.382;10.850;2022-12-18T03:48:43;30.30;;;12.07;;
19364;SDS011;9818;48.382;10.850;2022-12-18T03:51:18;25.00;;;11.73;;
19364;SDS011;9818;48.382;10.850;2022-12-18T03:53:53;24.30;;;10.03;;
19364;SDS011;9818;48.382;10.850;2022-12-18T03:56:26;30.97;;;13.70;;
19364;SDS011;9818;48.382;10.850;2022-12-18T03:59:01;25.97;;;11.30;;
19364;SDS011;9818;48.382;10.850;2022-12-18T04:01:33;28.67;;;11.30;;
19364;SDS011;9818;48.382;10.850;2022-12-18T04:04:03;22.17;;;11.67;;
19364;SDS011;9818;48.382;10.850;2022-12-18T04:06:34;23.83;;;11.33;;
19364;SDS011;9818;48.382;10.850;2022-12-18T04:09:05;20.23;;;10.10;;
19364;SDS011;9818;48.382;10.850;2022-12-18T04:11:34;22.00;;;10.67;;
19364;SDS011;9818;48.382;10.850;2022-12-18T04:14:05;24.17;;;12.13;;
19364;SDS011;9818;48.382;10.850;2022-12-18T04:16:34;24.83;;;12.23;;
19364;SDS011;9818;48.382;10.850;2022-12-18T04:19:03;21.77;;;11.30;;
19364;SDS011;9818;48.382;10.850;2022-12-18T04:21:31;22.63;;;10.50;;
19364;SDS011;9818;48.382;10.850;2022-12-18T04:24:00;19.93;;;10.17;;
19364;SDS011;9818;48.382;10.850;2022-12-18T04:26:28;17.73;;;9.27;;
19364;SDS011;9818;48.382;10.850;2022-12-18T04:28:57;21.07;;;10.70;;
19364;SDS011;9818;48.382;10.850;2022-12-18T04:31:28;24.73;;;11.60;;
19364;SDS011;9818;48.382;10.850;2022-12-18T04:33:57;19.83;;;10.13;;
19364;SDS011;9818;48.382;10.850;2022-12-18T04:36:26;27.10;;;12.33;;
19364;SDS011;9818;48.382;10.850;2022-12-18T04:38:55;25.63;;;11.90;;
19364;SDS011;9818;48.382;10.850;2022-12-18T04:41:24;24.63;;;11.53;;
19364;SDS011;9818;48.382;10.850;2022-12-18T04:43:52;27.87;;;12.63;;
19364;SDS011;9818;48.382;10.850;2022-12-18T04:46:21;26.67;;;12.93;;
19364;SDS011;9818;48.382;10.850;2022-12-18T04:48:52;23.90;;;11.77;;
19364;SDS011;9818;48.382;10.850;2022-12-18T04:51:21;31.50;;;13.87;;
19364;SDS011;9818;48.382;10.850;2022-12-18T04:53:50;23.30;;;11.70;;
19364;SDS011;9818;48.382;10.850;2022-12-18T04:56:18;18.47;;;9.50;;
19364;SDS011;9818;48.382;10.850;2022-12-18T04:58:48;21.40;;;10.50;;
19364;SDS011;9818;48.382;10.850;2022-12-18T05:01:17;25.87;;;12.67;;
19364;SDS011;9818;48.382;10.850;2022-12-18T05:03:46;28.53;;;13.93;;
19364;SDS011;9818;48.382;10.850;2022-12-18T05:06:17;34.37;;;15.90;;
19364;SDS011;9818;48.382;10.850;2022-12-18T05:08:46;38.30;;;15.97;;
19364;SDS011;9818;48.382;10.850;2022-12-18T05:11:15;27.57;;;12.97;;
19364;SDS011;9818;48.382;10.850;2022-12-18T05:13:44;33.63;;;15.00;;
19364;SDS011;9818;48.382;10.850;2022-12-18T05:16:14;33.57;;;15.40;;
19364;SDS011;9818;48.382;10.850;2022-12-18T05:18:43;22.70;;;10.70;;
19364;SDS011;9818;48.382;10.850;2022-12-18T05:21:11;30.47;;;13.57;;
19364;SDS011;9818;48.382;10.850;2022-12-18T05:23:42;23.40;;;11.67;;
19364;SDS011;9818;48.382;10.850;2022-12-18T05:26:14;24.30;;;12.73;;
19364;SDS011;9818;48.382;10.850;2022-12-18T05:28:44;23.00;;;11.97;;
19364;SDS011;9818;48.382;10.850;2022-12-18T05:31:14;28.90;;;12.47;;
19364;SDS011;9818;48.382;10.850;2022-12-18T05:33:42;22.43;;;11.10;;
19364;SDS011;9818;48.382;10.850;2022-12-18T05:36:14;39.47;;;17.70;;
19364;SDS011;9818;48.382;10.850;2022-12-18T05:38:46;26.53;;;12.37;;
19364;SDS011;9818;48.382;10.850;2022-12-18T05:41:14;19.77;;;10.53;;
19364;SDS011;9818;48.382;10.850;2022-12-18T05:43:43;25.43;;;11.47;;
19364;SDS011;9818;48.382;10.850;2022-12-18T05:46:13;23.87;;;11.67;;
19364;SDS011;9818;48.382;10.850;2022-12-18T05:48:42;28.50;;;13.10;;
19364;SDS011;9818;48.382;10.850;2022-12-18T05:51:13;30.73;;;15.20;;
19364;SDS011;9818;48.382;10.850;2022-12-18T05:53:46;32.90;;;14.93;;
19364;SDS011;9818;48.382;10.850;2022-12-18T05:56:16;29.43;;;13.90;;
19364;SDS011;9818;48.382;10.850;2022-12-18T05:58:47;26.00;;;11.80;;
19364;SDS011;9818;48.382;10.850;2022-12-18T06:01:19;25.83;;;12.37;;
19364;SDS011;9818;48.382;10.850;2022-12-18T06:03:50;30.00;;;14.10;;
19364;SDS011;9818;48.382;10.850;2022-12-18T06:06:20;26.73;;;12.40;;
19364;SDS011;9818;48.382;10.850;2022-12-18T06:08:52;24.60;;;12.20;;
19364;SDS011;9818;48.382;10.850;2022-12-18T06:11:23;28.67;;;13.33;;
19364;SDS011;9818;48.382;10.850;2022-12-18T06:13:53;23.13;;;11.97;;
19364;SDS011;9818;48.382;10.850;2022-12-18T06:16:23;24.57;;;10.77;;
19364;SDS011;9818;48.382;10.850;2022-12-18T06:18:51;28.43;;;13.37;;
19364;SDS011;9818;48.382;10.850;2022-12-18T06:21:20;20.93;;;10.70;;
19364;SDS011;9818;48.382;10.850;2022-12-18T06:23:49;26.27;;;12.33;;
19364;SDS011;9818;48.382;10.850;2022-12-18T06:26:20;21.67;;;10.33;;
19364;SDS011;9818;48.382;10.850;2022-12-18T06:28:48;26.27;;;13.80;;
19364;SDS011;9818;48.382;10.850;2022-12-18T06:31:17;27.10;;;12.27;;
19364;SDS011;9818;48.382;10.850;2022-12-18T06:33:46;26.90;;;12.43;;
19364;SDS011;9818;48.382;10.850;2022-12-18T06:36:14;22.40;;;10.60;;
19364;SDS011;9818;48.382;10.850;2022-12-18T06:38:44;21.37;;;10.40;;
19364;SDS011;9818;48.382;10.850;2022-12-18T06:41:14;27.10;;;12.00;;
19364;SDS011;9818;48.382;10.850;2022-12-18T06:43:46;24.63;;;12.13;;
19364;SDS011;9818;48.382;10.850;2022-12-18T06:46:14;22.33;;;10.70;;
19364;SDS011;9818;48.382;10.850;2022-12-18T06:48:46;25.43;;;12.27;;
19364;SDS011;9818;48.382;10.850;2022-12-18T06:51:16;19.53;;;10.50;;
19364;SDS011;9818;48.382;10.850;2022-12-18T06:53:45;19.40;;;11.07;;
19364;SDS011;9818;48.382;10.850;2022-12-18T06:56:14;19.77;;;9.53;;
19364;SDS011;9818;48.382;10.850;2022-12-18T06:58:46;23.40;;;11.27;;
19364;SDS011;9818;48.382;10.850;2022-12-18T07:01:14;28.67;;;13.03;;
19364;SDS011;9818;48.382;10.850;2022-12-18T07:03:43;31.20;;;13.17;;
19364;SDS011;9818;48.382;10.850;2022-12-18T07:06:15;30.07;;;13.57;;
19364;SDS011;9818;48.382;10.850;2022-12-18T07:08:45;28.27;;;14.30;;
19364;SDS011;9818;48.382;10.850;2022-12-18T07:11:15;29.40;;;14.00;;
19364;SDS011;9818;48.382;10.850;2022-12-18T07:13:47;23.40;;;10.33;;
19364;SDS011;9818;48.382;10.850;2022-12-18T07:16:17;24.40;;;11.47;;
19364;SDS011;9818;48.382;10.850;2022-12-18T07:18:47;24.43;;;12.23;;
19364;SDS011;9818;48.382;10.850;2022-12-18T07:21:16;21.53;;;10.10;;
19364;SDS011;9818;48.382;10.850;2022-12-18T07:23:46;29.80;;;13.27;;
19364;SDS011;9818;48.382;10.850;2022-12-18T07:26:16;24.10;;;12.50;;
19364;SDS011;9818;48.382;10.850;2022-12-18T07:28:48;19.33;;;9.30;;
19364;SDS011;9818;48.382;10.850;2022-12-18T07:31:18;19.43;;;9.87;;
19364;SDS011;9818;48.382;10.850;2022-12-18T07:33:48;24.20;;;11.03;;
19364;SDS011;9818;48.382;10.850;2022-12-18T07:36:17;17.07;;;9.53;;
19364;SDS011;9818;48.382;10.850;2022-12-18T07:38:49;18.50;;;9.13;;
19364;SDS011;9818;48.382;10.850;2022-12-18T07:41:19;20.77;;;10.03;;
19364;SDS011;9818;48.382;10.850;2022-12-18T07:43:51;19.13;;;9.80;;
19364;SDS011;9818;48.382;10.850;2022-12-18T07:46:19;19.73;;;10.90;;
19364;SDS011;9818;48.382;10.850;2022-12-18T07:48:48;18.67;;;9.70;;
19364;SDS011;9818;48.382;10.850;2022-12-18T07:51:17;24.83;;;12.00;;
19364;SDS011;9818;48.382;10.850;2022-12-18T07:53:46;23.77;;;12.00;;
19364;SDS011;9818;48.382;10.850;2022-12-18T07:56:15;25.87;;;12.10;;
19364;SDS011;9818;48.382;10.850;2022-12-18T07:58:46;21.40;;;11.63;;
19364;SDS011;9818;48.382;10.850;2022-12-18T08:01:18;20.00;;;9.70;;
19364;SDS011;9818;48.382;10.850;2022-12-18T08:03:46;18.77;;;10.50;;
19364;SDS011;9818;48.382;10.850;2022-12-18T08:06:15;16.80;;;8.60;;
19364;SDS011;9818;48.382;10.850;2022-12-18T08:08:44;19.50;;;9.83;;
19364;SDS011;9818;48.382;10.850;2022-12-18T08:11:12;18.07;;;9.57;;
19364;SDS011;9818;48.382;10.850;2022-12-18T08:13:41;16.10;;;8.40;;
19364;SDS011;9818;48.382;10.850;2022-12-18T08:16:09;20.27;;;9.80;;
19364;SDS011;9818;48.382;10.850;2022-12-18T08:18:41;19.77;;;10.50;;
19364;SDS011;9818;48.382;10.850;2022-12-18T08:21:09;19.87;;;9.87;;
19364;SDS011;9818;48.382;10.850;2022-12-18T08:23:40;28.70;;;12.50;;
19364;SDS011;9818;48.382;10.850;2022-12-18T08:26:10;24.47;;;11.23;;
19364;SDS011;9818;48.382;10.850;2022-12-18T08:28:39;22.80;;;9.93;;
19364;SDS011;9818;48.382;10.850;2022-12-18T08:31:09;19.13;;;9.37;;
19364;SDS011;9818;48.382;10.850;2022-12-18T08:33:41;15.77;;;9.17;;
19364;SDS011;9818;48.382;10.850;2022-12-18T08:36:09;14.80;;;8.40;;
19364;SDS011;9818;48.382;10.850;2022-12-18T08:38:38;18.40;;;9.17;;
19364;SDS011;9818;48.382;10.850;2022-12-18T08:41:07;18.27;;;9.77;;
19364;SDS011;9818;48.382;10.850;2022-12-18T08:43:37;19.20;;;10.07;;
19364;SDS011;9818;48.382;10.850;2022-12-18T08:46:19;20.10;;;9.13;;
19364;SDS011;9818;48.382;10.850;2022-12-18T08:48:52;14.20;;;8.20;;
19364;SDS011;9818;48.382;10.850;2022-12-18T08:51:21;23.67;;;11.77;;
19364;SDS011;9818;48.382;10.850;2022-12-18T08:53:50;20.50;;;10.67;;
19364;SDS011;9818;48.382;10.850;2022-12-18T08:56:19;26.50;;;12.80;;
19364;SDS011;9818;48.382;10.850;2022-12-18T08:58:50;25.63;;;12.03;;
19364;SDS011;9818;48.382;10.850;2022-12-18T09:01:19;18.10;;;9.30;;
19364;SDS011;9818;48.382;10.850;2022-12-18T09:03:49;22.13;;;10.17;;
19364;SDS011;9818;48.382;10.850;2022-12-18T09:06:21;20.07;;;9.80;;
19364;SDS011;9818;48.382;10.850;2022-12-18T09:08:51;19.20;;;9.23;;
19364;SDS011;9818;48.382;10.850;2022-12-18T09:11:21;35.87;;;15.83;;
19364;SDS011;9818;48.382;10.850;2022-12-18T09:13:52;25.13;;;12.30;;
19364;SDS011;9818;48.382;10.850;2022-12-18T09:16:21;19.50;;;10.47;;
19364;SDS011;9818;48.382;10.850;2022-12-18T09:18:55;21.73;;;10.73;;
19364;SDS011;9818;48.382;10.850;2022-12-18T09:21:27;20.60;;;10.20;;
19364;SDS011;9818;48.382;10.850;2022-12-18T09:23:57;17.83;;;9.40;;
19364;SDS011;9818;48.382;10.850;2022-12-18T09:26:26;17.20;;;9.57;;
19364;SDS011;9818;48.382;10.850;2022-12-18T09:28:55;18.90;;;9.23;;
19364;SDS011;9818;48.382;10.850;2022-12-18T09:31:24;18.00;;;9.40;;
19364;SDS011;9818;48.382;10.850;2022-12-18T09:33:57;21.70;;;11.13;;
19364;SDS011;9818;48.382;10.850;2022-12-18T09:36:25;17.77;;;8.70;;
19364;SDS011;9818;48.382;10.850;2022-12-18T09:38:54;19.43;;;9.30;;
19364;SDS011;9818;48.382;10.850;2022-12-18T09:44:13;19.93;;;10.57;;
19364;SDS011;9818;48.382;10.850;2022-12-18T09:46:49;18.43;;;9.73;;
19364;SDS011;9818;48.382;10.850;2022-12-18T09:49:26;18.07;;;9.30;;
19364;SDS011;9818;48.382;10.850;2022-12-18T09:51:59;23.10;;;10.77;;
19364;SDS011;9818;48.382;10.850;2022-12-18T09:54:32;17.73;;;9.23;;
19364;SDS011;9818;48.382;10.850;2022-12-18T09:57:11;16.17;;;8.97;;
19364;SDS011;9818;48.382;10.850;2022-12-18T09:59:42;17.33;;;10.00;;
19364;SDS011;9818;48.382;10.850;2022-12-18T10:02:16;19.47;;;10.43;;
19364;SDS011;9818;48.382;10.850;2022-12-18T10:04:51;18.70;;;9.40;;
19364;SDS011;9818;48.382;10.850;2022-12-18T10:07:30;18.57;;;10.80;;
19364;SDS011;9818;48.382;10.850;2022-12-18T10:10:14;18.30;;;9.73;;
19364;SDS011;9818;48.382;10.850;2022-12-18T10:12:56;19.70;;;9.47;;
19364;SDS011;9818;48.382;10.850;2022-12-18T10:15:34;22.70;;;11.00;;
19364;SDS011;9818;48.382;10.850;2022-12-18T10:18:13;23.03;;;11.23;;
19364;SDS011;9818;48.382;10.850;2022-12-18T10:20:53;22.90;;;11.20;;
19364;SDS011;9818;48.382;10.850;2022-12-18T10:23:29;28.83;;;14.20;;
19364;SDS011;9818;48.382;10.850;2022-12-18T10:26:02;26.97;;;14.23;;
19364;SDS011;9818;48.382;10.850;2022-12-18T10:28:33;31.10;;;14.23;;
19364;SDS011;9818;48.382;10.850;2022-12-18T10:31:07;27.17;;;13.53;;
19364;SDS011;9818;48.382;10.850;2022-12-18T10:33:43;25.70;;;11.70;;
19364;SDS011;9818;48.382;10.850;2022-12-18T10:36:15;21.20;;;11.13;;
19364;SDS011;9818;48.382;10.850;2022-12-18T10:38:44;20.83;;;10.67;;
19364;SDS011;9818;48.382;10.850;2022-12-18T10:41:23;17.27;;;9.43;;
19364;SDS011;9818;48.382;10.850;2022-12-18T10:44:10;20.97;;;10.30;;
19364;SDS011;9818;48.382;10.850;2022-12-18T10:46:40;20.07;;;10.40;;
19364;SDS011;9818;48.382;10.850;2022-12-18T10:49:18;19.13;;;9.97;;
19364;SDS011;9818;48.382;10.850;2022-12-18T10:51:51;20.93;;;11.23;;
19364;SDS011;9818;48.382;10.850;2022-12-18T10:54:34;18.60;;;10.13;;
19364;SDS011;9818;48.382;10.850;2022-12-18T10:57:14;18.37;;;9.03;;
19364;SDS011;9818;48.382;10.850;2022-12-18T10:59:50;20.90;;;10.30;;
19364;SDS011;9818;48.382;10.850;2022-12-18T11:02:27;26.33;;;12.73;;
19364;SDS011;9818;48.382;10.850;2022-12-18T11:05:01;16.23;;;9.27;;
19364;SDS011;9818;48.382;10.850;2022-12-18T11:07:53;22.57;;;11.37;;
19364;SDS011;9818;48.382;10.850;2022-12-18T11:10:23;21.33;;;10.60;;
19364;SDS011;9818;48.382;10.850;2022-12-18T11:12:56;28.73;;;14.57;;
19364;SDS011;9818;48.382;10.850;2022-12-18T11:15:36;25.00;;;12.77;;
19364;SDS011;9818;48.382;10.850;2022-12-18T11:18:14;24.63;;;13.03;;
19364;SDS011;9818;48.382;10.850;2022-12-18T11:20:56;24.97;;;13.73;;
19364;SDS011;9818;48.382;10.850;2022-12-18T11:23:30;33.93;;;14.73;;
19364;SDS011;9818;48.382;10.850;2022-12-18T11:25:59;23.03;;;11.67;;
19364;SDS011;9818;48.382;10.850;2022-12-18T11:28:34;27.53;;;13.10;;
19364;SDS011;9818;48.382;10.850;2022-12-18T11:31:11;26.37;;;12.47;;
19364;SDS011;9818;48.382;10.850;2022-12-18T11:33:52;23.50;;;12.33;;
19364;SDS011;9818;48.382;10.850;2022-12-18T11:36:28;23.27;;;11.67;;
19364;SDS011;9818;48.382;10.850;2022-12-18T11:39:03;24.27;;;12.73;;
19364;SDS011;9818;48.382;10.850;2022-12-18T11:41:41;27.90;;;13.60;;
19364;SDS011;9818;48.382;10.850;2022-12-18T11:44:28;33.67;;;15.27;;
19364;SDS011;9818;48.382;10.850;2022-12-18T11:47:03;27.67;;;12.90;;
19364;SDS011;9818;48.382;10.850;2022-12-18T11:49:41;27.73;;;13.47;;
19364;SDS011;9818;48.382;10.850;2022-12-18T11:52:15;22.70;;;11.17;;
19364;SDS011;9818;48.382;10.850;2022-12-18T11:54:53;25.17;;;11.70;;
19364;SDS011;9818;48.382;10.850;2022-12-18T11:57:29;19.50;;;10.13;;
19364;SDS011;9818;48.382;10.850;2022-12-18T12:00:09;22.60;;;11.57;;
19364;SDS011;9818;48.382;10.850;2022-12-18T12:02:43;29.97;;;14.70;;
19364;SDS011;9818;48.382;10.850;2022-12-18T12:05:36;22.03;;;10.73;;
19364;SDS011;9818;48.382;10.850;2022-12-18T12:08:14;28.63;;;13.23;;
19364;SDS011;9818;48.382;10.850;2022-12-18T12:10:58;21.37;;;11.20;;
19364;SDS011;9818;48.382;10.850;2022-12-18T12:13:39;29.90;;;13.63;;
19364;SDS011;9818;48.382;10.850;2022-12-18T12:16:17;19.20;;;10.23;;
19364;SDS011;9818;48.382;10.850;2022-12-18T12:18:58;24.93;;;12.87;;
19364;SDS011;9818;48.382;10.850;2022-12-18T12:21:37;19.83;;;11.43;;
19364;SDS011;9818;48.382;10.850;2022-12-18T12:24:12;23.63;;;11.90;;
19364;SDS011;9818;48.382;10.850;2022-12-18T12:26:57;20.83;;;11.77;;
19364;SDS011;9818;48.382;10.850;2022-12-18T12:29:40;22.67;;;11.83;;
19364;SDS011;9818;48.382;10.850;2022-12-18T12:32:22;23.00;;;11.03;;
19364;SDS011;9818;48.382;10.850;2022-12-18T12:35:03;21.87;;;11.57;;
19364;SDS011;9818;48.382;10.850;2022-12-18T12:37:43;19.07;;;9.50;;
19364;SDS011;9818;48.382;10.850;2022-12-18T12:40:19;22.50;;;11.13;;
19364;SDS011;9818;48.382;10.850;2022-12-18T12:42:55;21.97;;;11.20;;
19364;SDS011;9818;48.382;10.850;2022-12-18T12:45:40;21.17;;;11.07;;
19364;SDS011;9818;48.382;10.850;2022-12-18T12:48:16;17.33;;;9.20;;
19364;SDS011;9818;48.382;10.850;2022-12-18T12:50:50;19.27;;;10.53;;
19364;SDS011;9818;48.382;10.850;2022-12-18T12:53:22;19.13;;;9.80;;
19364;SDS011;9818;48.382;10.850;2022-12-18T12:55:54;17.73;;;9.43;;
19364;SDS011;9818;48.382;10.850;2022-12-18T12:58:29;19.17;;;10.80;;
19364;SDS011;9818;48.382;10.850;2022-12-18T13:01:08;23.40;;;12.27;;
19364;SDS011;9818;48.382;10.850;2022-12-18T13:03:44;26.40;;;13.73;;
19364;SDS011;9818;48.382;10.850;2022-12-18T13:06:22;22.47;;;11.37;;
19364;SDS011;9818;48.382;10.850;2022-12-18T13:09:01;22.20;;;11.20;;
19364;SDS011;9818;48.382;10.850;2022-12-18T13:11:32;27.80;;;13.33;;
19364;SDS011;9818;48.382;10.850;2022-12-18T13:14:26;26.87;;;12.50;;
19364;SDS011;9818;48.382;10.850;2022-12-18T13:20:03;20.67;;;10.97;;
19364;SDS011;9818;48.382;10.850;2022-12-18T13:22:35;21.33;;;11.40;;
19364;SDS011;9818;48.382;10.850;2022-12-18T13:27:58;24.63;;;12.00;;
19364;SDS011;9818;48.382;10.850;2022-12-18T13:30:44;24.20;;;11.73;;
19364;SDS011;9818;48.382;10.850;2022-12-18T13:36:13;20.37;;;11.30;;
19364;SDS011;9818;48.382;10.850;2022-12-18T13:38:44;20.60;;;10.63;;
19364;SDS011;9818;48.382;10.850;2022-12-18T13:41:22;19.27;;;10.40;;
19364;SDS011;9818;48.382;10.850;2022-12-18T13:43:53;17.23;;;8.70;;
19364;SDS011;9818;48.382;10.850;2022-12-18T13:46:26;18.23;;;9.53;;
19364;SDS011;9818;48.382;10.850;2022-12-18T13:48:57;19.60;;;9.53;;
19364;SDS011;9818;48.382;10.850;2022-12-18T13:51:30;18.70;;;9.87;;
19364;SDS011;9818;48.382;10.850;2022-12-18T13:54:01;19.23;;;10.00;;
19364;SDS011;9818;48.382;10.850;2022-12-18T13:56:33;21.20;;;9.80;;
19364;SDS011;9818;48.382;10.850;2022-12-18T13:59:12;20.67;;;10.60;;
19364;SDS011;9818;48.382;10.850;2022-12-18T14:01:46;19.67;;;9.87;;
19364;SDS011;9818;48.382;10.850;2022-12-18T14:04:19;19.57;;;10.40;;
19364;SDS011;9818;48.382;10.850;2022-12-18T14:06:54;18.60;;;9.50;;
19364;SDS011;9818;48.382;10.850;2022-12-18T14:09:26;23.70;;;11.73;;
19364;SDS011;9818;48.382;10.850;2022-12-18T14:11:57;23.43;;;10.33;;
19364;SDS011;9818;48.382;10.850;2022-12-18T14:14:38;22.37;;;10.67;;
19364;SDS011;9818;48.382;10.850;2022-12-18T14:17:12;19.43;;;10.00;;
19364;SDS011;9818;48.382;10.850;2022-12-18T14:19:43;21.70;;;10.37;;
19364;SDS011;9818;48.382;10.850;2022-12-18T14:22:14;20.83;;;9.67;;
19364;SDS011;9818;48.382;10.850;2022-12-18T14:24:44;20.07;;;10.23;;
19364;SDS011;9818;48.382;10.850;2022-12-18T14:27:21;17.90;;;10.13;;
19364;SDS011;9818;48.382;10.850;2022-12-18T14:29:51;20.43;;;10.07;;
19364;SDS011;9818;48.382;10.850;2022-12-18T14:32:23;13.27;;;8.40;;
19364;SDS011;9818;48.382;10.850;2022-12-18T14:34:52;17.83;;;8.97;;
19364;SDS011;9818;48.382;10.850;2022-12-18T14:37:22;20.63;;;10.50;;
19364;SDS011;9818;48.382;10.850;2022-12-18T14:39:54;26.03;;;12.07;;
19364;SDS011;9818;48.382;10.850;2022-12-18T14:42:24;24.07;;;11.90;;
19364;SDS011;9818;48.382;10.850;2022-12-18T14:47:55;20.03;;;10.07;;
19364;SDS011;9818;48.382;10.850;2022-12-18T14:50:24;24.13;;;11.60;;
19364;SDS011;9818;48.382;10.850;2022-12-18T14:52:53;21.60;;;11.83;;
19364;SDS011;9818;48.382;10.850;2022-12-18T14:55:22;17.33;;;9.63;;
19364;SDS011;9818;48.382;10.850;2022-12-18T14:57:50;17.50;;;9.67;;
19364;SDS011;9818;48.382;10.850;2022-12-18T15:00:22;18.17;;;9.67;;
19364;SDS011;9818;48.382;10.850;2022-12-18T15:02:55;20.43;;;10.10;;
19364;SDS011;9818;48.382;10.850;2022-12-18T15:05:26;21.97;;;11.17;;
19364;SDS011;9818;48.382;10.850;2022-12-18T15:07:57;20.60;;;10.70;;
19364;SDS011;9818;48.382;10.850;2022-12-18T15:10:28;27.23;;;12.57;;
19364;SDS011;9818;48.382;10.850;2022-12-18T15:13:08;22.07;;;11.47;;
19364;SDS011;9818;48.382;10.850;2022-12-18T15:15:45;20.73;;;10.47;;
19364;SDS011;9818;48.382;10.850;2022-12-18T15:18:20;17.07;;;9.17;;
19364;SDS011;9818;48.382;10.850;2022-12-18T15:20:52;19.53;;;10.20;;